This is the latest recevied weather packets stored in our database for station/object JS2HDO-13. If no packets are shown the sender has not sent any weather packets the latest 1 day(s).
| Time | Temp. | Humidity | Pressure | Rain* | Wind** | Luminosity | Snow |
|---|---|---|---|---|---|---|---|
| 1778070535 | 13.89° C | 94% | 1017.7 hPa | 0 mm | - | - | - |
| 1778069818 | 13.89° C | 94% | 1017.6 hPa | 0 mm | - | - | - |
| 1778068735 | 13.89° C | 95% | 1017.4 hPa | 0 mm | - | - | - |
| 1778068617 | 13.89° C | 95% | 1017.5 hPa | 0 mm | - | - | - |
| 1778067536 | 13.89° C | 94% | 1017.6 hPa | 0 mm | - | - | - |
| 1778065735 | 13.89° C | 94% | 1017.6 hPa | 0 mm | - | - | - |
| 1778063935 | 13.89° C | 94% | 1017.4 hPa | 0 mm | - | - | - |
| 1778062735 | 13.89° C | 93% | 1017.3 hPa | 0 mm | - | - | - |
| 1778061536 | 14.44° C | 92% | 1017.5 hPa | 0 mm | - | - | - |
| 1778060334 | 14.44° C | 92% | 1017.5 hPa | 0 mm | - | - | - |
| 1778059134 | 15° C | 92% | 1017.7 hPa | 0 mm | - | - | - |
| 1778058535 | 15° C | 92% | 1017.7 hPa | 0 mm | - | - | - |
| 1778057336 | 15.56° C | 93% | 1017.9 hPa | 0 mm | - | - | - |
| 1778056134 | 15.56° C | 92% | 1017.9 hPa | 0.25 mm | - | - | - |
| 1778055534 | 15.56° C | 92% | 1017.8 hPa | 0.25 mm | - | - | - |
| 1778053735 | 15.56° C | 91% | 1017.9 hPa | 0.25 mm | - | - | - |
| 1778052534 | 16.11° C | 90% | 1018.2 hPa | 0 mm | - | - | - |
| 1778051936 | 16.11° C | 89% | 1018.3 hPa | 0 mm | - | - | - |
| 1778051335 | 15.56° C | 89% | 1018.3 hPa | 0 mm | - | - | - |
| 1778048935 | 16.67° C | 87% | 1018.4 hPa | 0 mm | - | - | - |
| 1778048336 | 16.67° C | 87% | 1018.4 hPa | 0 mm | - | - | - |
| 1778047734 | 16.67° C | 86% | 1018.4 hPa | 0 mm | - | - | - |
| 1778047136 | 16.67° C | 85% | 1018.1 hPa | 0 mm | - | - | - |
| 1778046535 | 17.22° C | 85% | 1018.4 hPa | 0 mm | - | - | - |
| 1778045936 | 17.22° C | 87% | 1018.4 hPa | 0 mm | - | - | - |
* Rain latest hour (hover to see other rain measurements)
** Current wind speed in m/s (hover to see current wind gust speed)